This is the latest recevied weather packets stored in our database for station/object KG5EO. If no packets are shown the sender has not sent any weather packets the latest 1 day(s).
| Time | Temp. | Humidity | Pressure | Rain* | Wind** | Luminosity | Snow |
|---|---|---|---|---|---|---|---|
| 1778077572 | 18.89° C | 42% | 41.2 hPa | 0 mm | - | - | - |
| 1778076373 | 16.67° C | 47% | 41.2 hPa | 0 mm | - | - | - |
| 1778075771 | 15.56° C | 52% | 41.1 hPa | 0 mm | - | - | - |
| 1778075471 | 15.56° C | 50% | 41.1 hPa | 0 mm | - | - | - |
| 1778074270 | 13.33° C | 59% | 41.1 hPa | 0 mm | - | - | - |
| 1778073370 | 12.22° C | 58% | 41.1 hPa | 0 mm | - | - | - |
| 1778072169 | 12.22° C | 57% | 41.1 hPa | 0 mm | - | - | - |
| 1778069768 | 13.33° C | 51% | 41.1 hPa | 0 mm | - | - | - |
| 1778068268 | 14.44° C | 49% | 41.1 hPa | 0 mm | - | - | - |
| 1778067667 | 15° C | 48% | 41.1 hPa | 0 mm | - | - | - |
| 1778067367 | 15° C | 47% | 41.1 hPa | 0 mm | - | - | - |
| 1778067067 | 15° C | 47% | 41.1 hPa | 0 mm | - | - | - |
| 1778065866 | 14.44° C | 49% | 41.1 hPa | 0 mm | - | - | - |
| 1778063765 | 14.44° C | 50% | 41.1 hPa | 0 mm | - | - | - |
| 1778061964 | 13.89° C | 52% | 41.1 hPa | 0 mm | - | - | - |
| 1778060163 | 13.33° C | 52% | 41.1 hPa | 0 mm | - | - | - |
| 1778059863 | 13.33° C | 52% | 41.1 hPa | 0 mm | - | - | - |
| 1778058662 | 13.89° C | 50% | 41 hPa | 0 mm | - | - | - |
| 1778058362 | 14.44° C | 50% | 41 hPa | 0 mm | - | - | - |
| 1778058063 | 14.44° C | 49% | 41 hPa | 0 mm | - | - | - |
| 1778057762 | 14.44° C | 48% | 41 hPa | 0 mm | - | - | - |
| 1778057462 | 14.44° C | 49% | 41 hPa | 0 mm | - | - | - |
| 1778056563 | 14.44° C | 48% | 41 hPa | 0 mm | - | - | - |
| 1778055962 | 14.44° C | 48% | 41.1 hPa | 0 mm | - | - | - |
| 1778055661 | 14.44° C | 47% | 41.1 hPa | 0 mm | - | - | - |
* Rain latest hour (hover to see other rain measurements)
** Current wind speed in m/s (hover to see current wind gust speed)